sensor_id;sensor_type;location;lat;lon;timestamp;P1;durP1;ratioP1;P2;durP2;ratioP2
37411;SDS011;23278;52.110;6.050;2023-04-01T00:00:51;4.65;;;1.95;;
37411;SDS011;23278;52.110;6.050;2023-04-01T00:03:19;5.55;;;2.15;;
37411;SDS011;23278;52.110;6.050;2023-04-01T00:05:46;7.30;;;2.67;;
37411;SDS011;23278;52.110;6.050;2023-04-01T00:08:12;4.28;;;2.15;;
37411;SDS011;23278;52.110;6.050;2023-04-01T00:10:38;6.72;;;2.05;;
37411;SDS011;23278;52.110;6.050;2023-04-01T00:13:04;6.60;;;2.53;;
37411;SDS011;23278;52.110;6.050;2023-04-01T00:15:30;4.05;;;1.83;;
37411;SDS011;23278;52.110;6.050;2023-04-01T00:17:56;6.15;;;2.53;;
37411;SDS011;23278;52.110;6.050;2023-04-01T00:20:22;5.55;;;2.58;;
37411;SDS011;23278;52.110;6.050;2023-04-01T00:22:48;3.78;;;1.70;;
37411;SDS011;23278;52.110;6.050;2023-04-01T00:25:15;3.70;;;2.35;;
37411;SDS011;23278;52.110;6.050;2023-04-01T00:27:41;3.25;;;1.90;;
37411;SDS011;23278;52.110;6.050;2023-04-01T00:30:07;3.80;;;2.10;;
37411;SDS011;23278;52.110;6.050;2023-04-01T00:32:33;5.45;;;2.05;;
37411;SDS011;23278;52.110;6.050;2023-04-01T00:34:59;3.55;;;2.00;;
37411;SDS011;23278;52.110;6.050;2023-04-01T00:37:26;5.50;;;2.70;;
37411;SDS011;23278;52.110;6.050;2023-04-01T00:39:52;4.47;;;2.45;;
37411;SDS011;23278;52.110;6.050;2023-04-01T00:42:19;4.20;;;1.95;;
37411;SDS011;23278;52.110;6.050;2023-04-01T00:44:47;6.57;;;2.13;;
37411;SDS011;23278;52.110;6.050;2023-04-01T00:47:16;2.95;;;1.45;;
37411;SDS011;23278;52.110;6.050;2023-04-01T00:49:44;5.68;;;2.10;;
37411;SDS011;23278;52.110;6.050;2023-04-01T00:52:14;3.17;;;2.22;;
37411;SDS011;23278;52.110;6.050;2023-04-01T00:54:45;4.07;;;1.73;;
37411;SDS011;23278;52.110;6.050;2023-04-01T00:57:25;3.45;;;2.38;;
37411;SDS011;23278;52.110;6.050;2023-04-01T00:59:55;3.83;;;2.75;;
37411;SDS011;23278;52.110;6.050;2023-04-01T01:02:23;5.03;;;2.92;;
37411;SDS011;23278;52.110;6.050;2023-04-01T01:04:49;7.95;;;3.90;;
37411;SDS011;23278;52.110;6.050;2023-04-01T01:07:31;4.70;;;3.38;;
37411;SDS011;23278;52.110;6.050;2023-04-01T01:13:08;9.50;;;4.93;;
37411;SDS011;23278;52.110;6.050;2023-04-01T01:15:44;9.07;;;5.57;;
37411;SDS011;23278;52.110;6.050;2023-04-01T01:18:33;16.92;;;6.93;;
37411;SDS011;23278;52.110;6.050;2023-04-01T01:26:32;15.57;;;10.07;;
37411;SDS011;23278;52.110;6.050;2023-04-01T01:32:07;11.73;;;7.95;;
37411;SDS011;23278;52.110;6.050;2023-04-01T01:37:35;13.63;;;7.47;;
37411;SDS011;23278;52.110;6.050;2023-04-01T01:40:05;13.65;;;8.75;;
37411;SDS011;23278;52.110;6.050;2023-04-01T01:42:35;12.77;;;7.97;;
37411;SDS011;23278;52.110;6.050;2023-04-01T01:45:05;12.05;;;7.68;;
37411;SDS011;23278;52.110;6.050;2023-04-01T01:47:35;11.95;;;8.13;;
37411;SDS011;23278;52.110;6.050;2023-04-01T01:50:02;16.40;;;8.55;;
37411;SDS011;23278;52.110;6.050;2023-04-01T01:52:30;17.63;;;10.40;;
37411;SDS011;23278;52.110;6.050;2023-04-01T01:54:56;12.85;;;9.40;;
37411;SDS011;23278;52.110;6.050;2023-04-01T01:57:28;13.48;;;8.32;;
37411;SDS011;23278;52.110;6.050;2023-04-01T02:00:06;13.63;;;8.38;;
37411;SDS011;23278;52.110;6.050;2023-04-01T02:02:44;13.73;;;8.35;;
37411;SDS011;23278;52.110;6.050;2023-04-01T02:05:14;9.82;;;8.25;;
37411;SDS011;23278;52.110;6.050;2023-04-01T02:07:44;13.23;;;7.03;;
37411;SDS011;23278;52.110;6.050;2023-04-01T02:10:15;11.95;;;7.30;;
37411;SDS011;23278;52.110;6.050;2023-04-01T02:12:42;11.05;;;5.75;;
37411;SDS011;23278;52.110;6.050;2023-04-01T02:15:11;14.32;;;6.63;;
37411;SDS011;23278;52.110;6.050;2023-04-01T02:17:42;8.27;;;6.07;;
37411;SDS011;23278;52.110;6.050;2023-04-01T02:20:20;9.77;;;6.13;;
37411;SDS011;23278;52.110;6.050;2023-04-01T02:22:52;13.27;;;6.78;;
37411;SDS011;23278;52.110;6.050;2023-04-01T02:25:22;12.82;;;5.88;;
37411;SDS011;23278;52.110;6.050;2023-04-01T02:27:58;10.98;;;5.75;;
37411;SDS011;23278;52.110;6.050;2023-04-01T02:30:27;11.38;;;6.38;;
37411;SDS011;23278;52.110;6.050;2023-04-01T02:32:55;11.80;;;7.40;;
37411;SDS011;23278;52.110;6.050;2023-04-01T02:35:23;11.38;;;6.55;;
37411;SDS011;23278;52.110;6.050;2023-04-01T02:37:50;12.93;;;7.03;;
37411;SDS011;23278;52.110;6.050;2023-04-01T02:40:18;13.23;;;6.93;;
37411;SDS011;23278;52.110;6.050;2023-04-01T02:42:44;13.23;;;7.38;;
37411;SDS011;23278;52.110;6.050;2023-04-01T02:45:11;13.82;;;7.78;;
37411;SDS011;23278;52.110;6.050;2023-04-01T02:47:37;15.30;;;9.48;;
37411;SDS011;23278;52.110;6.050;2023-04-01T02:50:04;14.73;;;8.27;;
37411;SDS011;23278;52.110;6.050;2023-04-01T02:52:32;16.55;;;9.70;;
37411;SDS011;23278;52.110;6.050;2023-04-01T02:55:00;16.75;;;8.57;;
37411;SDS011;23278;52.110;6.050;2023-04-01T02:57:27;14.95;;;7.97;;
37411;SDS011;23278;52.110;6.050;2023-04-01T02:59:54;20.27;;;7.90;;
37411;SDS011;23278;52.110;6.050;2023-04-01T03:02:20;19.38;;;8.23;;
37411;SDS011;23278;52.110;6.050;2023-04-01T03:04:46;15.65;;;7.80;;
37411;SDS011;23278;52.110;6.050;2023-04-01T03:07:12;17.27;;;8.07;;
37411;SDS011;23278;52.110;6.050;2023-04-01T03:09:38;21.58;;;8.48;;
37411;SDS011;23278;52.110;6.050;2023-04-01T03:12:05;15.85;;;8.20;;
37411;SDS011;23278;52.110;6.050;2023-04-01T03:14:38;12.05;;;5.63;;
37411;SDS011;23278;52.110;6.050;2023-04-01T03:17:04;17.90;;;5.70;;
37411;SDS011;23278;52.110;6.050;2023-04-01T03:19:31;19.67;;;5.82;;
37411;SDS011;23278;52.110;6.050;2023-04-01T03:21:59;13.98;;;5.80;;
37411;SDS011;23278;52.110;6.050;2023-04-01T03:24:24;13.82;;;5.85;;
37411;SDS011;23278;52.110;6.050;2023-04-01T03:26:50;15.18;;;4.93;;
37411;SDS011;23278;52.110;6.050;2023-04-01T03:29:17;13.10;;;4.68;;
37411;SDS011;23278;52.110;6.050;2023-04-01T03:31:43;8.88;;;4.28;;
37411;SDS011;23278;52.110;6.050;2023-04-01T03:34:10;8.23;;;3.88;;
37411;SDS011;23278;52.110;6.050;2023-04-01T03:36:36;9.63;;;4.00;;
37411;SDS011;23278;52.110;6.050;2023-04-01T03:39:02;11.23;;;3.75;;
37411;SDS011;23278;52.110;6.050;2023-04-01T03:41:36;5.95;;;3.33;;
37411;SDS011;23278;52.110;6.050;2023-04-01T03:44:04;8.50;;;3.97;;
37411;SDS011;23278;52.110;6.050;2023-04-01T03:46:30;7.30;;;3.50;;
37411;SDS011;23278;52.110;6.050;2023-04-01T03:48:56;7.80;;;3.42;;
37411;SDS011;23278;52.110;6.050;2023-04-01T03:51:22;7.97;;;3.88;;
37411;SDS011;23278;52.110;6.050;2023-04-01T03:53:48;6.05;;;3.03;;
37411;SDS011;23278;52.110;6.050;2023-04-01T03:56:14;6.20;;;3.53;;
37411;SDS011;23278;52.110;6.050;2023-04-01T03:58:40;4.10;;;2.78;;
37411;SDS011;23278;52.110;6.050;2023-04-01T04:01:14;4.82;;;3.08;;
37411;SDS011;23278;52.110;6.050;2023-04-01T04:03:42;11.35;;;4.57;;
37411;SDS011;23278;52.110;6.050;2023-04-01T04:06:13;7.93;;;4.30;;
37411;SDS011;23278;52.110;6.050;2023-04-01T04:08:39;9.38;;;4.80;;
37411;SDS011;23278;52.110;6.050;2023-04-01T04:11:05;7.57;;;4.93;;
37411;SDS011;23278;52.110;6.050;2023-04-01T04:13:32;5.95;;;3.90;;
37411;SDS011;23278;52.110;6.050;2023-04-01T04:16:00;5.85;;;4.32;;
37411;SDS011;23278;52.110;6.050;2023-04-01T04:18:27;9.02;;;4.35;;
37411;SDS011;23278;52.110;6.050;2023-04-01T04:20:53;6.85;;;4.85;;
37411;SDS011;23278;52.110;6.050;2023-04-01T04:23:19;6.50;;;4.40;;
37411;SDS011;23278;52.110;6.050;2023-04-01T04:26:02;7.15;;;4.43;;
37411;SDS011;23278;52.110;6.050;2023-04-01T04:28:30;5.63;;;4.15;;
37411;SDS011;23278;52.110;6.050;2023-04-01T04:30:58;7.72;;;3.97;;
37411;SDS011;23278;52.110;6.050;2023-04-01T04:33:25;5.32;;;3.45;;
37411;SDS011;23278;52.110;6.050;2023-04-01T04:35:51;4.30;;;3.25;;
37411;SDS011;23278;52.110;6.050;2023-04-01T04:38:21;4.15;;;3.47;;
37411;SDS011;23278;52.110;6.050;2023-04-01T04:40:47;5.15;;;3.70;;
37411;SDS011;23278;52.110;6.050;2023-04-01T04:43:14;4.78;;;3.33;;
37411;SDS011;23278;52.110;6.050;2023-04-01T04:45:42;6.72;;;3.40;;
37411;SDS011;23278;52.110;6.050;2023-04-01T04:48:09;6.78;;;3.80;;
37411;SDS011;23278;52.110;6.050;2023-04-01T04:50:39;5.28;;;3.33;;
37411;SDS011;23278;52.110;6.050;2023-04-01T04:53:06;4.47;;;3.22;;
37411;SDS011;23278;52.110;6.050;2023-04-01T04:55:32;3.97;;;2.90;;
37411;SDS011;23278;52.110;6.050;2023-04-01T04:58:16;4.57;;;3.42;;
37411;SDS011;23278;52.110;6.050;2023-04-01T05:00:44;6.78;;;4.47;;
37411;SDS011;23278;52.110;6.050;2023-04-01T05:03:18;6.65;;;4.25;;
37411;SDS011;23278;52.110;6.050;2023-04-01T05:05:48;3.97;;;2.83;;
37411;SDS011;23278;52.110;6.050;2023-04-01T05:08:15;6.68;;;4.45;;
37411;SDS011;23278;52.110;6.050;2023-04-01T05:10:41;6.63;;;3.72;;
37411;SDS011;23278;52.110;6.050;2023-04-01T05:13:07;5.97;;;4.07;;
37411;SDS011;23278;52.110;6.050;2023-04-01T05:15:33;6.25;;;4.05;;
37411;SDS011;23278;52.110;6.050;2023-04-01T05:18:00;5.60;;;3.38;;
37411;SDS011;23278;52.110;6.050;2023-04-01T05:20:26;2.97;;;2.08;;
37411;SDS011;23278;52.110;6.050;2023-04-01T05:22:55;3.30;;;2.53;;
37411;SDS011;23278;52.110;6.050;2023-04-01T05:25:22;6.55;;;2.75;;
37411;SDS011;23278;52.110;6.050;2023-04-01T05:27:49;2.90;;;2.38;;
37411;SDS011;23278;52.110;6.050;2023-04-01T05:30:15;4.00;;;3.22;;
37411;SDS011;23278;52.110;6.050;2023-04-01T05:32:53;3.25;;;2.17;;
37411;SDS011;23278;52.110;6.050;2023-04-01T05:35:19;2.97;;;2.67;;
37411;SDS011;23278;52.110;6.050;2023-04-01T05:37:45;4.97;;;2.88;;
37411;SDS011;23278;52.110;6.050;2023-04-01T05:40:11;5.35;;;3.47;;
37411;SDS011;23278;52.110;6.050;2023-04-01T05:42:37;4.28;;;3.47;;
37411;SDS011;23278;52.110;6.050;2023-04-01T05:45:03;5.35;;;4.28;;
37411;SDS011;23278;52.110;6.050;2023-04-01T05:47:50;5.28;;;4.40;;
37411;SDS011;23278;52.110;6.050;2023-04-01T05:50:17;5.20;;;4.28;;
37411;SDS011;23278;52.110;6.050;2023-04-01T05:52:43;6.07;;;4.80;;
37411;SDS011;23278;52.110;6.050;2023-04-01T05:55:10;6.80;;;4.20;;
37411;SDS011;23278;52.110;6.050;2023-04-01T05:57:36;5.35;;;4.40;;
37411;SDS011;23278;52.110;6.050;2023-04-01T06:00:04;7.65;;;5.15;;
37411;SDS011;23278;52.110;6.050;2023-04-01T06:02:38;9.75;;;5.85;;
37411;SDS011;23278;52.110;6.050;2023-04-01T06:05:17;10.32;;;6.03;;
37411;SDS011;23278;52.110;6.050;2023-04-01T06:07:45;8.20;;;5.78;;
37411;SDS011;23278;52.110;6.050;2023-04-01T06:10:12;11.55;;;6.68;;
37411;SDS011;23278;52.110;6.050;2023-04-01T06:15:24;14.05;;;7.70;;
37411;SDS011;23278;52.110;6.050;2023-04-01T06:24:08;14.50;;;7.07;;
37411;SDS011;23278;52.110;6.050;2023-04-01T06:29:53;12.25;;;6.40;;
37411;SDS011;23278;52.110;6.050;2023-04-01T06:35:19;11.98;;;7.07;;
37411;SDS011;23278;52.110;6.050;2023-04-01T06:38:21;15.65;;;7.95;;
37411;SDS011;23278;52.110;6.050;2023-04-01T06:47:23;13.13;;;7.55;;
37411;SDS011;23278;52.110;6.050;2023-04-01T06:56:36;13.77;;;7.57;;
37411;SDS011;23278;52.110;6.050;2023-04-01T06:59:28;14.93;;;7.57;;
37411;SDS011;23278;52.110;6.050;2023-04-01T07:01:58;13.77;;;6.88;;
37411;SDS011;23278;52.110;6.050;2023-04-01T07:06:54;14.95;;;7.90;;
37411;SDS011;23278;52.110;6.050;2023-04-01T07:09:31;12.50;;;6.75;;
37411;SDS011;23278;52.110;6.050;2023-04-01T07:15:30;14.13;;;7.32;;
37411;SDS011;23278;52.110;6.050;2023-04-01T07:18:18;16.13;;;8.25;;
37411;SDS011;23278;52.110;6.050;2023-04-01T07:20:53;18.13;;;8.07;;
37411;SDS011;23278;52.110;6.050;2023-04-01T07:23:42;17.73;;;7.45;;
37411;SDS011;23278;52.110;6.050;2023-04-01T07:26:35;14.43;;;7.15;;
37411;SDS011;23278;52.110;6.050;2023-04-01T07:29:08;15.50;;;6.93;;
37411;SDS011;23278;52.110;6.050;2023-04-01T07:34:28;14.27;;;7.15;;
37411;SDS011;23278;52.110;6.050;2023-04-01T07:48:32;15.00;;;6.60;;
37411;SDS011;23278;52.110;6.050;2023-04-01T07:50:50;14.18;;;7.35;;
37411;SDS011;23278;52.110;6.050;2023-04-01T07:59:01;13.68;;;7.18;;
37411;SDS011;23278;52.110;6.050;2023-04-01T08:07:44;9.95;;;6.38;;
37411;SDS011;23278;52.110;6.050;2023-04-01T08:10:33;9.02;;;5.10;;
37411;SDS011;23278;52.110;6.050;2023-04-01T08:16:41;11.20;;;5.78;;
37411;SDS011;23278;52.110;6.050;2023-04-01T08:22:50;9.80;;;6.15;;
37411;SDS011;23278;52.110;6.050;2023-04-01T08:25:28;8.73;;;5.28;;
37411;SDS011;23278;52.110;6.050;2023-04-01T08:30:57;8.30;;;4.35;;
37411;SDS011;23278;52.110;6.050;2023-04-01T08:33:29;9.45;;;4.82;;
37411;SDS011;23278;52.110;6.050;2023-04-01T08:36:11;5.70;;;3.65;;
37411;SDS011;23278;52.110;6.050;2023-04-01T08:38:44;5.15;;;3.22;;
37411;SDS011;23278;52.110;6.050;2023-04-01T08:47:23;5.63;;;2.35;;
37411;SDS011;23278;52.110;6.050;2023-04-01T08:50:23;3.63;;;2.25;;
37411;SDS011;23278;52.110;6.050;2023-04-01T08:53:14;4.13;;;2.38;;
37411;SDS011;23278;52.110;6.050;2023-04-01T08:56:05;3.78;;;2.35;;
37411;SDS011;23278;52.110;6.050;2023-04-01T09:07:56;4.75;;;2.45;;
37411;SDS011;23278;52.110;6.050;2023-04-01T09:11:17;3.55;;;2.45;;
37411;SDS011;23278;52.110;6.050;2023-04-01T09:14:23;3.05;;;2.20;;
37411;SDS011;23278;52.110;6.050;2023-04-01T09:20:27;3.00;;;2.10;;
37411;SDS011;23278;52.110;6.050;2023-04-01T09:25:46;2.85;;;1.70;;
37411;SDS011;23278;52.110;6.050;2023-04-01T09:37:46;3.15;;;2.35;;
37411;SDS011;23278;52.110;6.050;2023-04-01T09:54:53;2.08;;;1.75;;
37411;SDS011;23278;52.110;6.050;2023-04-01T09:57:23;2.63;;;1.90;;
37411;SDS011;23278;52.110;6.050;2023-04-01T10:09:23;2.65;;;1.77;;
37411;SDS011;23278;52.110;6.050;2023-04-01T10:12:19;1.77;;;1.20;;
37411;SDS011;23278;52.110;6.050;2023-04-01T10:18:29;2.30;;;1.52;;
37411;SDS011;23278;52.110;6.050;2023-04-01T10:35:41;0.40;;;0.40;;
37411;SDS011;23278;52.110;6.050;2023-04-01T10:45:02;0.50;;;0.50;;
37411;SDS011;23278;52.110;6.050;2023-04-01T10:53:33;0.70;;;0.40;;
37411;SDS011;23278;52.110;6.050;2023-04-01T11:31:51;0.55;;;0.50;;
37411;SDS011;23278;52.110;6.050;2023-04-01T11:46:05;0.40;;;0.40;;
37411;SDS011;23278;52.110;6.050;2023-04-01T12:41:59;3.13;;;2.20;;
37411;SDS011;23278;52.110;6.050;2023-04-01T12:50:09;2.88;;;2.28;;
37411;SDS011;23278;52.110;6.050;2023-04-01T12:55:50;0.75;;;0.75;;
37411;SDS011;23278;52.110;6.050;2023-04-01T13:14:50;1.20;;;0.68;;
37411;SDS011;23278;52.110;6.050;2023-04-01T13:17:57;1.05;;;0.93;;
37411;SDS011;23278;52.110;6.050;2023-04-01T13:20:53;1.08;;;0.85;;
37411;SDS011;23278;52.110;6.050;2023-04-01T13:32:27;1.00;;;0.70;;
37411;SDS011;23278;52.110;6.050;2023-04-01T13:43:49;2.65;;;1.27;;
37411;SDS011;23278;52.110;6.050;2023-04-01T13:52:08;1.77;;;1.42;;
37411;SDS011;23278;52.110;6.050;2023-04-01T13:54:58;1.40;;;1.13;;
37411;SDS011;23278;52.110;6.050;2023-04-01T13:57:56;1.98;;;1.10;;
37411;SDS011;23278;52.110;6.050;2023-04-01T14:00:44;1.40;;;0.90;;
37411;SDS011;23278;52.110;6.050;2023-04-01T14:06:29;2.00;;;1.42;;
37411;SDS011;23278;52.110;6.050;2023-04-01T14:11:49;3.10;;;1.80;;
37411;SDS011;23278;52.110;6.050;2023-04-01T14:20:30;2.15;;;1.33;;
37411;SDS011;23278;52.110;6.050;2023-04-01T14:31:34;3.05;;;2.58;;
37411;SDS011;23278;52.110;6.050;2023-04-01T14:46:05;2.90;;;1.70;;
37411;SDS011;23278;52.110;6.050;2023-04-01T14:49:05;2.17;;;1.95;;
37411;SDS011;23278;52.110;6.050;2023-04-01T14:51:43;2.03;;;1.75;;
37411;SDS011;23278;52.110;6.050;2023-04-01T14:57:01;3.60;;;2.38;;
37411;SDS011;23278;52.110;6.050;2023-04-01T15:00:13;3.17;;;2.63;;
37411;SDS011;23278;52.110;6.050;2023-04-01T15:28:22;2.57;;;2.27;;
37411;SDS011;23278;52.110;6.050;2023-04-01T15:31:02;5.43;;;2.83;;
37411;SDS011;23278;52.110;6.050;2023-04-01T15:39:09;2.40;;;1.35;;
37411;SDS011;23278;52.110;6.050;2023-04-01T15:44:46;2.72;;;1.30;;
37411;SDS011;23278;52.110;6.050;2023-04-01T15:55:31;2.63;;;2.40;;
37411;SDS011;23278;52.110;6.050;2023-04-01T16:04:03;2.40;;;2.20;;
37411;SDS011;23278;52.110;6.050;2023-04-01T16:20:24;6.20;;;3.92;;
37411;SDS011;23278;52.110;6.050;2023-04-01T16:23:10;3.63;;;3.17;;
37411;SDS011;23278;52.110;6.050;2023-04-01T16:28:53;3.30;;;3.00;;
37411;SDS011;23278;52.110;6.050;2023-04-01T16:34:14;2.97;;;2.70;;
37411;SDS011;23278;52.110;6.050;2023-04-01T16:36:51;2.53;;;2.33;;
37411;SDS011;23278;52.110;6.050;2023-04-01T16:39:27;2.28;;;2.08;;
37411;SDS011;23278;52.110;6.050;2023-04-01T16:42:16;2.50;;;2.30;;
37411;SDS011;23278;52.110;6.050;2023-04-01T16:44:50;2.75;;;2.55;;
37411;SDS011;23278;52.110;6.050;2023-04-01T16:48:10;3.30;;;3.00;;
37411;SDS011;23278;52.110;6.050;2023-04-01T16:56:13;3.28;;;2.97;;
37411;SDS011;23278;52.110;6.050;2023-04-01T16:59:03;3.15;;;2.65;;
37411;SDS011;23278;52.110;6.050;2023-04-01T17:01:44;2.90;;;2.50;;
37411;SDS011;23278;52.110;6.050;2023-04-01T17:04:24;2.72;;;2.53;;
37411;SDS011;23278;52.110;6.050;2023-04-01T17:13:33;2.88;;;2.00;;
37411;SDS011;23278;52.110;6.050;2023-04-01T17:16:43;2.90;;;2.70;;
37411;SDS011;23278;52.110;6.050;2023-04-01T17:33:24;3.97;;;2.95;;
37411;SDS011;23278;52.110;6.050;2023-04-01T17:36:03;4.40;;;4.03;;
37411;SDS011;23278;52.110;6.050;2023-04-01T17:47:03;3.72;;;3.42;;
37411;SDS011;23278;52.110;6.050;2023-04-01T17:52:46;3.97;;;3.38;;
37411;SDS011;23278;52.110;6.050;2023-04-01T17:58:21;3.63;;;3.33;;
37411;SDS011;23278;52.110;6.050;2023-04-01T18:01:06;4.50;;;3.85;;
37411;SDS011;23278;52.110;6.050;2023-04-01T18:14:49;4.40;;;4.00;;
37411;SDS011;23278;52.110;6.050;2023-04-01T18:19:57;5.80;;;4.78;;
37411;SDS011;23278;52.110;6.050;2023-04-01T18:22:41;5.15;;;4.75;;
37411;SDS011;23278;52.110;6.050;2023-04-01T18:28:17;3.10;;;2.90;;
37411;SDS011;23278;52.110;6.050;2023-04-01T18:30:50;3.92;;;3.63;;
37411;SDS011;23278;52.110;6.050;2023-04-01T18:33:25;3.50;;;3.20;;
37411;SDS011;23278;52.110;6.050;2023-04-01T18:42:08;3.42;;;3.13;;
37411;SDS011;23278;52.110;6.050;2023-04-01T18:44:50;3.70;;;3.40;;
37411;SDS011;23278;52.110;6.050;2023-04-01T18:52:48;3.42;;;3.13;;
37411;SDS011;23278;52.110;6.050;2023-04-01T18:55:35;3.97;;;3.67;;
37411;SDS011;23278;52.110;6.050;2023-04-01T19:00:41;3.72;;;3.42;;
37411;SDS011;23278;52.110;6.050;2023-04-01T19:03:26;4.70;;;4.40;;
37411;SDS011;23278;52.110;6.050;2023-04-01T19:06:12;5.30;;;4.90;;
37411;SDS011;23278;52.110;6.050;2023-04-01T19:08:45;4.03;;;3.67;;
37411;SDS011;23278;52.110;6.050;2023-04-01T19:20:03;3.95;;;3.65;;
37411;SDS011;23278;52.110;6.050;2023-04-01T19:25:43;4.20;;;3.90;;
37411;SDS011;23278;52.110;6.050;2023-04-01T19:28:20;5.32;;;4.93;;
37411;SDS011;23278;52.110;6.050;2023-04-01T19:30:54;5.53;;;5.13;;
37411;SDS011;23278;52.110;6.050;2023-04-01T19:36:43;7.05;;;5.43;;
37411;SDS011;23278;52.110;6.050;2023-04-01T19:39:22;6.15;;;5.57;;
37411;SDS011;23278;52.110;6.050;2023-04-01T19:44:30;5.50;;;5.10;;
37411;SDS011;23278;52.110;6.050;2023-04-01T19:47:17;5.97;;;5.50;;
37411;SDS011;23278;52.110;6.050;2023-04-01T19:52:36;6.10;;;4.78;;
37411;SDS011;23278;52.110;6.050;2023-04-01T20:00:53;6.20;;;5.70;;
37411;SDS011;23278;52.110;6.050;2023-04-01T20:09:11;6.15;;;5.55;;
37411;SDS011;23278;52.110;6.050;2023-04-01T20:12:09;6.18;;;5.57;;
37411;SDS011;23278;52.110;6.050;2023-04-01T20:14:49;6.20;;;5.65;;
37411;SDS011;23278;52.110;6.050;2023-04-01T20:17:19;6.85;;;6.35;;
37411;SDS011;23278;52.110;6.050;2023-04-01T20:30:50;7.43;;;6.72;;
37411;SDS011;23278;52.110;6.050;2023-04-01T20:39:27;5.60;;;5.10;;
37411;SDS011;23278;52.110;6.050;2023-04-01T21:12:56;5.53;;;4.32;;
37411;SDS011;23278;52.110;6.050;2023-04-01T21:15:33;4.72;;;4.28;;
37411;SDS011;23278;52.110;6.050;2023-04-01T21:18:10;4.78;;;4.15;;
37411;SDS011;23278;52.110;6.050;2023-04-01T21:23:23;4.47;;;4.05;;
37411;SDS011;23278;52.110;6.050;2023-04-01T21:26:23;4.75;;;4.38;;
37411;SDS011;23278;52.110;6.050;2023-04-01T21:34:52;5.35;;;4.85;;
37411;SDS011;23278;52.110;6.050;2023-04-01T21:45:50;5.60;;;5.18;;
37411;SDS011;23278;52.110;6.050;2023-04-01T21:51:26;5.38;;;4.97;;
37411;SDS011;23278;52.110;6.050;2023-04-01T22:12:43;5.55;;;5.03;;
37411;SDS011;23278;52.110;6.050;2023-04-01T22:15:31;5.60;;;5.10;;
37411;SDS011;23278;52.110;6.050;2023-04-01T22:23:25;4.35;;;3.95;;
37411;SDS011;23278;52.110;6.050;2023-04-01T22:29:10;5.70;;;4.97;;
37411;SDS011;23278;52.110;6.050;2023-04-01T22:34:55;5.80;;;5.30;;
37411;SDS011;23278;52.110;6.050;2023-04-01T22:43:11;7.38;;;6.68;;
37411;SDS011;23278;52.110;6.050;2023-04-01T22:48:09;7.57;;;6.78;;
37411;SDS011;23278;52.110;6.050;2023-04-01T22:50:45;8.55;;;7.75;;
37411;SDS011;23278;52.110;6.050;2023-04-01T22:55:46;8.63;;;7.82;;
37411;SDS011;23278;52.110;6.050;2023-04-01T22:58:17;8.65;;;7.85;;
37411;SDS011;23278;52.110;6.050;2023-04-01T23:00:56;8.55;;;7.75;;
37411;SDS011;23278;52.110;6.050;2023-04-01T23:03:30;8.55;;;7.75;;
37411;SDS011;23278;52.110;6.050;2023-04-01T23:05:58;10.25;;;9.25;;
37411;SDS011;23278;52.110;6.050;2023-04-01T23:11:16;8.70;;;7.75;;
37411;SDS011;23278;52.110;6.050;2023-04-01T23:13:50;9.60;;;8.60;;
37411;SDS011;23278;52.110;6.050;2023-04-01T23:16:24;11.45;;;10.35;;
37411;SDS011;23278;52.110;6.050;2023-04-01T23:19:19;9.38;;;7.93;;
37411;SDS011;23278;52.110;6.050;2023-04-01T23:21:49;6.88;;;6.18;;
37411;SDS011;23278;52.110;6.050;2023-04-01T23:24:33;10.23;;;7.07;;
37411;SDS011;23278;52.110;6.050;2023-04-01T23:27:11;9.68;;;6.05;;
37411;SDS011;23278;52.110;6.050;2023-04-01T23:29:38;9.48;;;6.75;;
37411;SDS011;23278;52.110;6.050;2023-04-01T23:32:05;7.95;;;5.53;;
37411;SDS011;23278;52.110;6.050;2023-04-01T23:34:51;6.75;;;6.05;;
37411;SDS011;23278;52.110;6.050;2023-04-01T23:37:19;7.00;;;5.38;;
37411;SDS011;23278;52.110;6.050;2023-04-01T23:39:46;7.03;;;5.13;;
37411;SDS011;23278;52.110;6.050;2023-04-01T23:44:46;5.75;;;4.68;;
37411;SDS011;23278;52.110;6.050;2023-04-01T23:47:20;4.78;;;4.25;;
37411;SDS011;23278;52.110;6.050;2023-04-01T23:49:55;5.03;;;4.53;;
37411;SDS011;23278;52.110;6.050;2023-04-01T23:52:24;5.85;;;4.50;;
37411;SDS011;23278;52.110;6.050;2023-04-01T23:57:22;5.45;;;4.90;;
